createdAt,value
2022-08-05T00:01:55.327Z,100624.78
2022-08-05T00:04:36.239Z,100622.81
2022-08-05T00:07:59.253Z,100620.16
2022-08-05T00:09:53.569Z,100629.56
2022-08-05T00:12:24.756Z,100624.66
2022-08-05T00:14:53.307Z,100620.47
2022-08-05T00:17:22.231Z,100623.75
2022-08-05T00:20:01.880Z,100626.97
2022-08-05T00:22:31.697Z,100627.25
2022-08-05T00:25:00.465Z,100633.88
2022-08-05T00:27:36.256Z,100625.03
2022-08-05T00:30:11.544Z,100623.53
2022-08-05T00:32:41.396Z,100622.69
2022-08-05T00:35:11.629Z,100619.72
2022-08-05T00:37:53.069Z,100616.91
2022-08-05T00:40:29.191Z,100618.47
2022-08-05T00:43:03.054Z,100620.03
2022-08-05T00:45:43.123Z,100625.50
2022-08-05T00:48:15.108Z,100624.50
2022-08-05T00:50:47.159Z,100621.56
2022-08-05T00:53:45.247Z,100615.72
2022-08-05T00:56:07.945Z,100613.03
2022-08-05T00:58:38.894Z,100619.31
2022-08-05T01:01:12.106Z,100620.03
2022-08-05T01:03:41.565Z,100621.41
2022-08-05T01:06:15.350Z,100608.25
2022-08-05T01:08:44.981Z,100609.97
2022-08-05T01:11:33.310Z,100605.53
2022-08-05T01:14:15.513Z,100610.13
2022-08-05T01:16:52.271Z,100605.81
2022-08-05T01:19:56.962Z,100596.69
2022-08-05T01:22:46.852Z,100601.03
2022-08-05T01:25:40.738Z,100602.16
2022-08-05T01:28:31.419Z,100605.13
2022-08-05T01:31:10.033Z,100604.41
2022-08-05T01:33:53.530Z,100600.91
2022-08-05T01:36:28.639Z,100597.72
2022-08-05T01:39:00.144Z,100593.69
2022-08-05T01:41:36.572Z,100596.34
2022-08-05T01:44:10.037Z,100594.09
2022-08-05T01:46:46.169Z,100599.16
2022-08-05T01:49:28.168Z,100594.94
2022-08-05T01:52:19.518Z,100592.47
2022-08-05T01:54:55.168Z,100598.06
2022-08-05T01:58:12.974Z,100595.84
2022-08-05T02:00:20.752Z,100589.97
2022-08-05T02:03:24.237Z,100586.91
2022-08-05T02:05:59.678Z,100586.50
2022-08-05T02:08:31.598Z,100588.44
2022-08-05T02:11:08.245Z,100575.84
2022-08-05T02:13:53.727Z,100580.19
2022-08-05T02:16:35.890Z,100578.22
2022-08-05T02:19:18.692Z,100577.09
2022-08-05T02:21:59.360Z,100568.44
2022-08-05T02:24:37.027Z,100572.03
2022-08-05T02:27:11.489Z,100573.03
2022-08-05T02:29:59.828Z,100564.22
2022-08-05T02:32:35.237Z,100570.22
2022-08-05T02:35:14.063Z,100566.72
2022-08-05T02:37:47.697Z,100563.38
2022-08-05T02:40:27.547Z,100566.03
2022-08-05T02:42:58.829Z,100560.03
2022-08-05T02:45:51.373Z,100568.28
2022-08-05T02:48:20.880Z,100561.00
2022-08-05T02:51:01.837Z,100555.97
2022-08-05T02:53:39.769Z,100560.00
2022-08-05T02:56:16.116Z,100556.53
2022-08-05T02:58:51.643Z,100554.97
2022-08-05T03:01:27.004Z,100551.78
2022-08-05T03:04:12.949Z,100551.22
2022-08-05T03:06:54.598Z,100544.34
2022-08-05T03:09:38.205Z,100540.88
2022-08-05T03:12:31.062Z,100544.06
2022-08-05T03:14:59.982Z,100536.56
2022-08-05T03:17:29.363Z,100538.06
2022-08-05T03:19:59.775Z,100540.03
2022-08-05T03:22:32.554Z,100543.13
2022-08-05T03:25:31.452Z,100541.75
2022-08-05T03:28:00.173Z,100534.19
2022-08-05T03:30:34.036Z,100532.91
2022-08-05T03:33:07.525Z,100536.97
2022-08-05T03:35:40.429Z,100538.91
2022-08-05T03:38:14.546Z,100540.59
2022-08-05T03:40:45.295Z,100543.25
2022-08-05T03:44:09.314Z,100542.81
2022-08-05T03:46:08.311Z,100540.31
2022-08-05T03:48:37.511Z,100549.97
2022-08-05T03:52:48.982Z,100541.56
2022-08-05T03:55:54.082Z,100545.03
2022-08-05T03:57:16.681Z,100547.72
2022-08-05T03:59:56.658Z,100536.38
2022-08-05T04:02:37.369Z,100537.06
2022-08-05T04:05:11.140Z,100534.28
2022-08-05T04:07:57.491Z,100533.56
2022-08-05T04:10:33.324Z,100530.72
2022-08-05T04:13:08.316Z,100541.94
2022-08-05T04:15:37.651Z,100539.22
2022-08-05T04:18:08.013Z,100542.13
2022-08-05T04:20:41.150Z,100541.56
2022-08-05T04:23:16.022Z,100542.34
2022-08-05T04:25:57.900Z,100543.28
2022-08-05T04:28:30.985Z,100538.22
2022-08-05T04:31:01.801Z,100534.25
2022-08-05T04:34:17.066Z,100532.38
2022-08-05T04:36:45.601Z,100532.47
2022-08-05T04:39:15.597Z,100527.25
2022-08-05T04:41:44.417Z,100530.84
2022-08-05T04:44:14.547Z,100523.06
2022-08-05T04:46:49.794Z,100527.03
2022-08-05T04:49:24.571Z,100523.44
2022-08-05T04:52:07.849Z,100534.16
2022-08-05T04:54:37.800Z,100527.06
2022-08-05T04:57:06.616Z,100534.16
2022-08-05T04:59:38.961Z,100531.00
2022-08-05T05:02:41.457Z,100528.25
2022-08-05T05:05:02.835Z,100531.59
2022-08-05T05:07:35.375Z,100523.13
2022-08-05T05:10:07.111Z,100532.09
2022-08-05T05:12:36.685Z,100538.09
2022-08-05T05:15:10.772Z,100534.34
2022-08-05T05:17:56.974Z,100535.91
2022-08-05T05:20:28.244Z,100541.28
2022-08-05T05:22:57.784Z,100540.50
2022-08-05T05:25:40.576Z,100549.91
2022-08-05T05:28:10.873Z,100558.50
2022-08-05T05:30:40.642Z,100557.34
2022-08-05T05:33:17.087Z,100554.56
2022-08-05T05:35:47.617Z,100564.09
2022-08-05T05:38:22.155Z,100561.94
2022-08-05T05:40:57.380Z,100562.63
2022-08-05T05:43:57.359Z,100561.13
2022-08-05T05:46:17.674Z,100572.81
2022-08-05T05:48:48.973Z,100570.31
2022-08-05T05:51:23.232Z,100573.63
2022-08-05T05:53:58.858Z,100568.91
2022-08-05T05:56:34.776Z,100573.22
2022-08-05T05:59:06.974Z,100569.16
2022-08-05T06:01:40.190Z,100557.41
2022-08-05T06:04:11.945Z,100565.41
2022-08-05T06:06:47.303Z,100556.31
2022-08-05T06:09:35.390Z,100551.16
2022-08-05T06:12:10.343Z,100556.63
2022-08-05T06:14:42.552Z,100555.00
2022-08-05T06:17:22.019Z,100558.72
2022-08-05T06:19:57.231Z,100557.66
2022-08-05T06:22:34.049Z,100563.53
2022-08-05T06:25:24.372Z,100554.38
2022-08-05T06:28:11.370Z,100552.28
2022-08-05T06:30:43.383Z,100558.69
2022-08-05T06:33:12.150Z,100551.97
2022-08-05T06:36:07.410Z,100556.53
2022-08-05T06:38:37.207Z,100549.66
2022-08-05T06:41:07.751Z,100552.63
2022-08-05T06:43:58.516Z,100556.13
2022-08-05T06:46:29.873Z,100548.06
2022-08-05T06:49:00.781Z,100542.66
2022-08-05T06:51:31.684Z,100545.63
2022-08-05T06:54:01.731Z,100545.53
2022-08-05T06:56:34.169Z,100536.06
2022-08-05T06:59:09.575Z,100537.28
2022-08-05T07:01:40.800Z,100539.84
2022-08-05T07:04:14.053Z,100539.47
2022-08-05T07:06:43.204Z,100539.50
2022-08-05T07:09:11.794Z,100542.59
2022-08-05T07:11:45.515Z,100547.53
2022-08-05T07:14:38.910Z,100550.16
2022-08-05T07:18:00.692Z,100548.38
2022-08-05T07:22:45.724Z,100533.31
2022-08-05T07:25:54.805Z,100538.84
2022-08-05T07:28:09.648Z,100532.94
2022-08-05T07:30:42.122Z,100541.69
2022-08-05T07:33:16.154Z,100540.47
2022-08-05T07:36:04.716Z,100538.34
2022-08-05T07:38:42.570Z,100545.34
2022-08-05T07:42:12.834Z,100542.88
2022-08-05T07:44:18.795Z,100537.97
2022-08-05T07:46:50.563Z,100542.91
2022-08-05T07:49:20.502Z,100534.22
2022-08-05T07:51:54.840Z,100533.91
2022-08-05T07:54:31.486Z,100540.13
2022-08-05T07:57:17.554Z,100533.91
2022-08-05T07:59:53.489Z,100532.59
2022-08-05T08:02:30.770Z,100528.69
2022-08-05T08:05:17.444Z,100534.19
2022-08-05T08:07:59.257Z,100538.66
2022-08-05T08:10:30.153Z,100541.31
2022-08-05T08:13:00.729Z,100543.09
2022-08-05T08:16:33.433Z,100542.25
2022-08-05T08:18:21.356Z,100536.13
2022-08-05T08:21:02.475Z,100525.00
2022-08-05T08:24:01.193Z,100532.28
2022-08-05T08:26:29.396Z,100531.63
2022-08-05T08:29:21.616Z,100529.16
2022-08-05T08:31:49.906Z,100536.31
2022-08-05T08:34:30.304Z,100535.50
2022-08-05T08:37:03.215Z,100541.13
2022-08-05T08:39:37.505Z,100523.22
2022-08-05T08:42:27.566Z,100534.41
2022-08-05T08:45:23.609Z,100525.91
2022-08-05T08:48:07.488Z,100528.84
2022-08-05T08:51:07.650Z,100524.91
2022-08-05T08:53:44.363Z,100526.53
2022-08-05T08:56:14.296Z,100522.78
2022-08-05T08:58:47.865Z,100524.56
2022-08-05T09:01:19.261Z,100517.19
2022-08-05T09:03:54.535Z,100517.50
2022-08-05T09:06:28.232Z,100532.25
2022-08-05T09:09:01.182Z,100519.38
2022-08-05T09:11:52.505Z,100515.84
2022-08-05T09:14:56.727Z,100518.91
2022-08-05T09:17:40.989Z,100516.28
2022-08-05T09:20:05.327Z,100507.47
2022-08-05T09:23:18.511Z,100519.88
2022-08-05T09:25:59.825Z,100518.41
2022-08-05T09:28:34.949Z,100507.59
2022-08-05T09:31:18.245Z,100502.31
2022-08-05T09:33:54.976Z,100501.13
2022-08-05T09:36:27.828Z,100499.53
2022-08-05T09:39:18.316Z,100502.31
2022-08-05T09:41:59.525Z,100498.00
2022-08-05T09:44:37.700Z,100502.75
2022-08-05T09:47:12.611Z,100500.53
2022-08-05T09:50:01.503Z,100495.19
2022-08-05T09:52:34.015Z,100497.16
2022-08-05T09:55:56.817Z,100496.06
2022-08-05T09:57:58.580Z,100492.00
2022-08-05T10:00:30.564Z,100486.41
2022-08-05T10:02:59.496Z,100491.31
2022-08-05T10:05:32.713Z,100485.66
2022-08-05T10:08:34.999Z,100483.66
2022-08-05T10:10:55.645Z,100479.38
2022-08-05T10:13:47.861Z,100484.63
2022-08-05T10:16:33.940Z,100466.97
2022-08-05T10:19:08.544Z,100462.75
2022-08-05T10:21:39.953Z,100457.44
2022-08-05T10:24:13.473Z,100458.25
2022-08-05T10:26:51.482Z,100453.28
2022-08-05T10:30:05.786Z,100445.09
2022-08-05T10:32:55.538Z,100451.47
2022-08-05T10:35:02.196Z,100455.25
2022-08-05T10:37:40.372Z,100436.66
2022-08-05T10:40:29.185Z,100447.53
2022-08-05T10:43:11.171Z,100442.28
2022-08-05T10:45:42.361Z,100440.53
2022-08-05T10:48:40.677Z,100440.06
2022-08-05T10:51:29.353Z,100437.66
2022-08-05T10:54:02.023Z,100439.50
2022-08-05T10:56:47.434Z,100440.69
2022-08-05T11:00:03.289Z,100430.31
2022-08-05T11:02:34.996Z,100411.81
2022-08-05T11:05:10.261Z,100415.59
2022-08-05T11:08:02.967Z,100420.22
2022-08-05T11:10:50.461Z,100402.03
2022-08-05T11:13:54.734Z,100397.16
2022-08-05T11:16:47.895Z,100405.78
2022-08-05T11:20:10.192Z,100403.22
2022-08-05T11:22:43.491Z,100408.06
2022-08-05T11:26:05.735Z,100395.66
2022-08-05T11:28:47.812Z,100405.41
2022-08-05T11:31:54.484Z,100397.16
2022-08-05T11:34:38.259Z,100393.91
2022-08-05T11:38:29.336Z,100393.25
2022-08-05T11:40:03.010Z,100395.81
2022-08-05T11:42:40.356Z,100395.22
2022-08-05T11:45:14.238Z,100384.53
2022-08-05T11:47:58.986Z,100392.13
2022-08-05T11:50:28.528Z,100388.22
2022-08-05T11:52:58.319Z,100386.84
2022-08-05T11:55:32.022Z,100392.25
2022-08-05T11:58:09.743Z,100392.72
2022-08-05T12:00:44.392Z,100387.41
2022-08-05T12:03:29.328Z,100388.72
2022-08-05T12:06:06.205Z,100381.06
2022-08-05T12:08:49.902Z,100377.06
2022-08-05T12:11:22.211Z,100380.44
2022-08-05T12:14:00.903Z,100366.97
2022-08-05T12:16:38.585Z,100372.88
2022-08-05T12:20:26.604Z,100369.47
2022-08-05T12:22:01.664Z,100361.66
2022-08-05T12:24:30.425Z,100366.50
2022-08-05T12:26:59.435Z,100374.22
2022-08-05T12:29:39.262Z,100362.34
2022-08-05T12:32:09.713Z,100353.72
2022-08-05T12:34:40.430Z,100353.72
2022-08-05T12:37:17.374Z,100340.88
2022-08-05T12:39:51.919Z,100333.38
2022-08-05T12:42:25.201Z,100338.66
2022-08-05T12:45:03.252Z,100334.66
2022-08-05T12:47:43.494Z,100334.03
2022-08-05T12:50:30.975Z,100336.53
2022-08-05T12:53:00.522Z,100333.13
2022-08-05T12:55:32.925Z,100331.47
2022-08-05T12:58:50.806Z,100323.91
2022-08-05T13:02:02.757Z,100327.69
2022-08-05T13:03:43.295Z,100330.16
2022-08-05T13:06:19.891Z,100322.53
2022-08-05T13:08:49.203Z,100320.84
2022-08-05T13:11:35.062Z,100324.25
2022-08-05T13:14:19.699Z,100315.44
2022-08-05T13:16:56.632Z,100314.50
2022-08-05T13:19:52.104Z,100305.06
2022-08-05T13:22:28.458Z,100313.78
2022-08-05T13:25:05.135Z,100310.28
2022-08-05T13:27:39.189Z,100304.50
2022-08-05T13:30:34.137Z,100301.41
2022-08-05T13:33:01.459Z,100291.50
2022-08-05T13:35:47.033Z,100304.59
2022-08-05T13:38:30.635Z,100306.97
2022-08-05T13:41:00.728Z,100312.41
2022-08-05T13:43:45.792Z,100300.59
2022-08-05T13:46:35.814Z,100292.22
2022-08-05T13:49:10.198Z,100287.47
2022-08-05T13:51:46.383Z,100289.94
2022-08-05T13:54:21.110Z,100279.59
2022-08-05T13:56:54.648Z,100278.16
2022-08-05T13:59:27.138Z,100281.81
2022-08-05T14:02:00.026Z,100274.81
2022-08-05T14:04:51.120Z,100275.94
2022-08-05T14:07:26.257Z,100273.22
2022-08-05T14:10:18.750Z,100274.69
2022-08-05T14:12:49.095Z,100260.72
2022-08-05T14:16:04.602Z,100272.94
2022-08-05T14:18:15.173Z,100270.00
2022-08-05T14:20:48.387Z,100271.56
2022-08-05T14:23:24.569Z,100267.19
2022-08-05T14:25:59.017Z,100264.22
2022-08-05T14:28:29.717Z,100254.97
2022-08-05T14:31:01.394Z,100263.03
2022-08-05T14:33:56.353Z,100257.38
2022-08-05T14:36:20.595Z,100262.47
2022-08-05T14:38:51.298Z,100251.13
2022-08-05T14:41:22.017Z,100259.41
2022-08-05T14:44:00.034Z,100257.16
2022-08-05T14:46:35.606Z,100258.84
2022-08-05T14:49:08.110Z,100248.56
2022-08-05T14:51:42.868Z,100245.25
2022-08-05T14:54:28.207Z,100254.47
2022-08-05T14:57:00.930Z,100254.47
2022-08-05T14:59:35.797Z,100254.56
2022-08-05T15:02:14.699Z,100258.97
2022-08-05T15:04:44.939Z,100254.94
2022-08-05T15:08:05.775Z,100257.03
2022-08-05T15:10:09.695Z,100256.09
2022-08-05T15:13:00.158Z,100254.59
2022-08-05T15:15:55.964Z,100251.63
2022-08-05T15:18:17.896Z,100250.69
2022-08-05T15:20:47.087Z,100238.56
2022-08-05T15:23:16.755Z,100248.91
2022-08-05T15:25:52.398Z,100242.69
2022-08-05T15:28:27.793Z,100232.41
2022-08-05T15:30:57.589Z,100233.09
2022-08-05T15:34:05.787Z,100237.09
2022-08-05T15:36:17.224Z,100229.34
2022-08-05T15:40:42.682Z,100222.13
2022-08-05T15:41:55.684Z,100228.28
2022-08-05T15:44:30.272Z,100230.66
2022-08-05T15:47:01.805Z,100231.06
2022-08-05T15:49:48.137Z,100216.19
2022-08-05T15:52:52.024Z,100219.72
2022-08-05T15:55:16.282Z,100218.34
2022-08-05T15:57:46.026Z,100216.78
2022-08-05T16:00:26.251Z,100210.97
2022-08-05T16:03:10.076Z,100207.31
2022-08-05T16:05:39.233Z,100209.91
2022-08-05T16:08:10.801Z,100216.56
2022-08-05T16:10:45.881Z,100217.97
2022-08-05T16:13:19.300Z,100211.00
2022-08-05T16:15:53.959Z,100218.00
2022-08-05T16:18:28.112Z,100213.91
2022-08-05T16:20:59.764Z,100211.03
2022-08-05T16:23:54.045Z,100200.13
2022-08-05T16:26:26.378Z,100213.22
2022-08-05T16:28:56.494Z,100209.38
2022-08-05T16:31:26.601Z,100209.97
2022-08-05T16:34:15.667Z,100199.81
2022-08-05T16:36:44.742Z,100200.69
2022-08-05T16:39:13.671Z,100189.56
2022-08-05T16:42:13.943Z,100195.63
2022-08-05T16:44:32.253Z,100208.28
2022-08-05T16:47:03.794Z,100201.03
2022-08-05T16:49:33.226Z,100195.66
2022-08-05T16:52:02.739Z,100200.63
2022-08-05T16:54:33.161Z,100200.97
2022-08-05T16:57:02.080Z,100202.88
2022-08-05T16:59:31.060Z,100203.75
2022-08-05T17:02:00.969Z,100196.94
2022-08-05T17:04:31.286Z,100191.63
2022-08-05T17:07:01.812Z,100191.03
2022-08-05T17:09:39.001Z,100192.19
2022-08-05T17:12:22.621Z,100191.72
2022-08-05T17:15:15.564Z,100196.44
2022-08-05T17:17:44.562Z,100186.00
2022-08-05T17:20:16.516Z,100189.00
2022-08-05T17:22:45.458Z,100195.78
2022-08-05T17:25:40.154Z,100201.75
2022-08-05T17:28:10.126Z,100196.28
2022-08-05T17:30:42.396Z,100199.66
2022-08-05T17:33:19.981Z,100198.78
2022-08-05T17:36:09.153Z,100205.81
2022-08-05T17:38:39.926Z,100201.59
2022-08-05T17:41:11.671Z,100205.47
2022-08-05T17:43:58.342Z,100201.81
2022-08-05T17:46:27.813Z,100207.25
2022-08-05T17:48:56.494Z,100210.41
2022-08-05T17:51:28.074Z,100198.66
2022-08-05T17:54:09.081Z,100199.97
2022-08-05T17:56:38.398Z,100203.53
2022-08-05T17:59:07.093Z,100208.34
2022-08-05T18:01:42.681Z,100207.38
2022-08-05T18:04:21.130Z,100208.84
2022-08-05T18:06:51.803Z,100204.28
2022-08-05T18:09:21.378Z,100203.25
2022-08-05T18:11:52.581Z,100204.72
2022-08-05T18:14:21.395Z,100211.16
2022-08-05T18:16:52.440Z,100204.31
2022-08-05T18:19:23.347Z,100209.50
2022-08-05T18:22:09.749Z,100214.25
2022-08-05T18:24:41.292Z,100216.28
2022-08-05T18:27:18.115Z,100213.16
2022-08-05T18:29:54.029Z,100214.38
2022-08-05T18:32:28.107Z,100217.88
2022-08-05T18:34:57.841Z,100209.56
2022-08-05T18:37:33.453Z,100213.50
2022-08-05T18:40:34.497Z,100199.78
2022-08-05T18:42:52.751Z,100221.13
2022-08-05T18:45:21.892Z,100216.16
2022-08-05T18:47:56.699Z,100212.41
2022-08-05T18:50:46.425Z,100207.81
2022-08-05T18:53:24.556Z,100210.25
2022-08-05T18:55:55.086Z,100203.84
2022-08-05T18:58:28.719Z,100217.25
2022-08-05T19:00:58.304Z,100210.19
2022-08-05T19:03:53.506Z,100216.78
2022-08-05T19:06:21.944Z,100212.38
2022-08-05T19:08:52.450Z,100209.69
2022-08-05T19:11:28.397Z,100212.16
2022-08-05T19:14:01.062Z,100217.09
2022-08-05T19:16:46.862Z,100219.56
2022-08-05T19:19:16.205Z,100209.63
2022-08-05T19:21:50.577Z,100211.44
2022-08-05T19:24:34.357Z,100216.81
2022-08-05T19:27:05.670Z,100216.63
2022-08-05T19:29:36.460Z,100210.72
2022-08-05T19:32:11.179Z,100214.84
2022-08-05T19:34:40.393Z,100218.97
2022-08-05T19:37:10.093Z,100214.97
2022-08-05T19:39:47.740Z,100218.25
2022-08-05T19:42:36.201Z,100219.44
2022-08-05T19:45:07.200Z,100221.41
2022-08-05T19:47:37.904Z,100216.81
2022-08-05T19:50:10.610Z,100216.75
2022-08-05T19:52:41.498Z,100220.03
2022-08-05T19:56:15.739Z,100221.84
2022-08-05T19:58:07.134Z,100216.97
2022-08-05T20:00:49.620Z,100216.97
2022-08-05T20:03:18.579Z,100225.09
2022-08-05T20:05:51.270Z,100230.00
2022-08-05T20:08:24.507Z,100226.56
2022-08-05T20:10:55.518Z,100224.53
2022-08-05T20:13:30.087Z,100221.34
2022-08-05T20:16:13.501Z,100222.00
2022-08-05T20:18:48.640Z,100213.91
2022-08-05T20:21:25.515Z,100209.53
2022-08-05T20:23:54.465Z,100208.28
2022-08-05T20:26:26.353Z,100207.63
2022-08-05T20:29:00.743Z,100199.53
2022-08-05T20:31:42.005Z,100202.88
2022-08-05T20:34:19.178Z,100208.22
2022-08-05T20:36:48.720Z,100212.47
2022-08-05T20:39:18.791Z,100213.38
2022-08-05T20:41:49.343Z,100209.47
2022-08-05T20:44:29.691Z,100206.06
2022-08-05T20:47:03.213Z,100206.75
2022-08-05T20:49:33.204Z,100225.56
2022-08-05T20:52:10.764Z,100227.13
2022-08-05T20:54:59.719Z,100229.63
2022-08-05T20:57:43.603Z,100221.13
2022-08-05T21:00:41.591Z,100220.69
2022-08-05T21:03:08.001Z,100216.81
2022-08-05T21:05:53.998Z,100221.53
2022-08-05T21:08:28.060Z,100220.53
2022-08-05T21:11:12.029Z,100222.16
2022-08-05T21:13:55.632Z,100223.09
2022-08-05T21:16:29.429Z,100228.38
2022-08-05T21:19:01.125Z,100220.25
2022-08-05T21:21:39.831Z,100232.81
2022-08-05T21:24:15.614Z,100232.00
2022-08-05T21:26:53.613Z,100227.47
2022-08-05T21:29:32.007Z,100225.34
2022-08-05T21:32:03.365Z,100225.91
2022-08-05T21:34:35.438Z,100234.16
2022-08-05T21:37:04.857Z,100235.19
2022-08-05T21:39:34.795Z,100229.81
2022-08-05T21:42:30.995Z,100241.19
2022-08-05T21:44:59.879Z,100238.06
2022-08-05T21:47:55.076Z,100231.84
2022-08-05T21:50:18.285Z,100230.63
2022-08-05T21:52:47.358Z,100231.84
2022-08-05T21:55:17.246Z,100237.59
2022-08-05T21:57:46.513Z,100231.56
2022-08-05T22:00:18.426Z,100233.59
2022-08-05T22:02:47.857Z,100229.66
2022-08-05T22:05:16.530Z,100235.56
2022-08-05T22:07:59.031Z,100229.09
2022-08-05T22:10:31.029Z,100238.59
2022-08-05T22:13:08.846Z,100221.72
2022-08-05T22:16:02.070Z,100231.59
2022-08-05T22:18:39.952Z,100232.34
2022-08-05T22:21:19.410Z,100239.38
2022-08-05T22:24:09.144Z,100234.19
2022-08-05T22:27:00.024Z,100239.06
2022-08-05T22:29:30.798Z,100240.44
2022-08-05T22:32:03.613Z,100235.44
2022-08-05T22:34:33.204Z,100238.25
2022-08-05T22:37:03.662Z,100229.72
2022-08-05T22:39:34.453Z,100222.59
2022-08-05T22:42:12.370Z,100220.75
2022-08-05T22:44:55.479Z,100227.50
2022-08-05T22:47:29.285Z,100232.88
2022-08-05T22:50:21.777Z,100223.50
2022-08-05T22:52:51.272Z,100221.94
2022-08-05T22:55:21.958Z,100216.31
2022-08-05T22:57:52.353Z,100211.97
2022-08-05T23:00:24.113Z,100220.19
2022-08-05T23:02:56.891Z,100218.16
2022-08-05T23:05:26.838Z,100226.03
2022-08-05T23:07:55.715Z,100227.31
2022-08-05T23:10:24.536Z,100213.63
2022-08-05T23:12:55.893Z,100213.53
2022-08-05T23:15:29.820Z,100216.94
2022-08-05T23:18:11.801Z,100219.81
2022-08-05T23:20:44.979Z,100213.28
2022-08-05T23:23:13.707Z,100213.09
2022-08-05T23:25:53.524Z,100215.75
2022-08-05T23:28:29.156Z,100218.97
2022-08-05T23:31:03.708Z,100222.22
2022-08-05T23:34:04.915Z,100223.13
2022-08-05T23:36:40.261Z,100226.38
2022-08-05T23:39:17.599Z,100231.13
2022-08-05T23:41:53.935Z,100232.81
2022-08-05T23:44:28.017Z,100231.06
2022-08-05T23:47:02.586Z,100233.13
2022-08-05T23:49:46.825Z,100230.16
2022-08-05T23:52:29.300Z,100228.00
2022-08-05T23:55:05.248Z,100218.13
2022-08-05T23:57:36.151Z,100227.66
